sensor_id;sensor_type;location;lat;lon;timestamp;temperature;humidity
53653;DHT22;39553;52.954;5.932;2022-07-29T00:00:45;14.70;99.90
53653;DHT22;39553;52.954;5.932;2022-07-29T00:03:11;14.70;99.90
53653;DHT22;39553;52.954;5.932;2022-07-29T00:05:41;14.70;99.90
53653;DHT22;39553;52.954;5.932;2022-07-29T00:08:07;14.70;99.90
53653;DHT22;39553;52.954;5.932;2022-07-29T00:10:34;14.70;99.90
53653;DHT22;39553;52.954;5.932;2022-07-29T00:13:00;14.70;99.90
53653;DHT22;39553;52.954;5.932;2022-07-29T00:15:26;14.70;99.90
53653;DHT22;39553;52.954;5.932;2022-07-29T00:17:51;14.70;99.90
53653;DHT22;39553;52.954;5.932;2022-07-29T00:20:17;14.80;99.90
53653;DHT22;39553;52.954;5.932;2022-07-29T00:22:44;14.70;99.90
53653;DHT22;39553;52.954;5.932;2022-07-29T00:25:12;14.70;99.90
53653;DHT22;39553;52.954;5.932;2022-07-29T00:27:38;14.70;99.90
53653;DHT22;39553;52.954;5.932;2022-07-29T00:30:04;14.70;99.90
53653;DHT22;39553;52.954;5.932;2022-07-29T00:32:30;14.60;99.90
53653;DHT22;39553;52.954;5.932;2022-07-29T00:34:56;14.60;99.90
53653;DHT22;39553;52.954;5.932;2022-07-29T00:37:41;14.80;99.90
53653;DHT22;39553;52.954;5.932;2022-07-29T00:40:07;14.50;99.90
53653;DHT22;39553;52.954;5.932;2022-07-29T00:42:50;14.50;99.90
53653;DHT22;39553;52.954;5.932;2022-07-29T00:45:16;14.60;99.90
53653;DHT22;39553;52.954;5.932;2022-07-29T00:47:42;14.50;99.90
53653;DHT22;39553;52.954;5.932;2022-07-29T00:50:10;14.50;99.90
53653;DHT22;39553;52.954;5.932;2022-07-29T00:52:39;14.50;99.90
53653;DHT22;39553;52.954;5.932;2022-07-29T00:55:08;14.50;99.90
53653;DHT22;39553;52.954;5.932;2022-07-29T00:57:35;14.50;99.90
53653;DHT22;39553;52.954;5.932;2022-07-29T01:00:04;14.50;99.90
53653;DHT22;39553;52.954;5.932;2022-07-29T01:02:31;14.50;99.90
53653;DHT22;39553;52.954;5.932;2022-07-29T01:04:57;14.50;99.90
53653;DHT22;39553;52.954;5.932;2022-07-29T01:07:24;14.50;99.90
53653;DHT22;39553;52.954;5.932;2022-07-29T01:09:51;14.40;99.90
53653;DHT22;39553;52.954;5.932;2022-07-29T01:12:24;14.40;99.90
53653;DHT22;39553;52.954;5.932;2022-07-29T01:14:52;14.50;99.90
53653;DHT22;39553;52.954;5.932;2022-07-29T01:20:12;14.40;99.90
53653;DHT22;39553;52.954;5.932;2022-07-29T01:26:04;14.40;99.90
53653;DHT22;39553;52.954;5.932;2022-07-29T01:31:51;14.40;99.90
53653;DHT22;39553;52.954;5.932;2022-07-29T01:34:27;14.40;99.90
53653;DHT22;39553;52.954;5.932;2022-07-29T01:39:36;14.40;99.90
53653;DHT22;39553;52.954;5.932;2022-07-29T01:42:42;14.40;99.90
53653;DHT22;39553;52.954;5.932;2022-07-29T01:45:15;14.40;99.90
53653;DHT22;39553;52.954;5.932;2022-07-29T01:48:17;14.40;99.90
53653;DHT22;39553;52.954;5.932;2022-07-29T01:51:16;14.40;99.90
53653;DHT22;39553;52.954;5.932;2022-07-29T01:54:03;14.40;99.90
53653;DHT22;39553;52.954;5.932;2022-07-29T01:56:32;14.40;99.90
53653;DHT22;39553;52.954;5.932;2022-07-29T01:59:02;14.40;99.90
53653;DHT22;39553;52.954;5.932;2022-07-29T02:01:31;14.40;99.90
53653;DHT22;39553;52.954;5.932;2022-07-29T02:03:59;14.40;99.90
53653;DHT22;39553;52.954;5.932;2022-07-29T02:06:27;14.40;99.90
53653;DHT22;39553;52.954;5.932;2022-07-29T02:08:56;14.40;99.90
53653;DHT22;39553;52.954;5.932;2022-07-29T02:11:26;14.40;99.90
53653;DHT22;39553;52.954;5.932;2022-07-29T02:13:54;14.30;99.90
53653;DHT22;39553;52.954;5.932;2022-07-29T02:16:22;14.30;99.90
53653;DHT22;39553;52.954;5.932;2022-07-29T02:18:55;14.30;99.90
53653;DHT22;39553;52.954;5.932;2022-07-29T02:21:24;14.20;99.90
53653;DHT22;39553;52.954;5.932;2022-07-29T02:23:52;14.30;99.90
53653;DHT22;39553;52.954;5.932;2022-07-29T02:26:20;14.30;99.90
53653;DHT22;39553;52.954;5.932;2022-07-29T02:28:48;14.30;99.90
53653;DHT22;39553;52.954;5.932;2022-07-29T02:31:16;14.30;99.90
53653;DHT22;39553;52.954;5.932;2022-07-29T02:33:45;14.30;99.90
53653;DHT22;39553;52.954;5.932;2022-07-29T02:36:12;14.20;99.90
53653;DHT22;39553;52.954;5.932;2022-07-29T02:38:42;14.40;99.90
53653;DHT22;39553;52.954;5.932;2022-07-29T02:41:28;14.20;99.90
53653;DHT22;39553;52.954;5.932;2022-07-29T02:44:06;14.20;99.90
53653;DHT22;39553;52.954;5.932;2022-07-29T02:46:37;14.20;99.90
53653;DHT22;39553;52.954;5.932;2022-07-29T02:49:16;14.20;99.90
53653;DHT22;39553;52.954;5.932;2022-07-29T02:51:48;14.20;99.90
53653;DHT22;39553;52.954;5.932;2022-07-29T02:54:31;14.20;99.90
53653;DHT22;39553;52.954;5.932;2022-07-29T02:57:00;14.20;99.90
53653;DHT22;39553;52.954;5.932;2022-07-29T02:59:29;14.20;99.90
53653;DHT22;39553;52.954;5.932;2022-07-29T03:01:57;14.20;99.90
53653;DHT22;39553;52.954;5.932;2022-07-29T03:04:25;14.20;99.90
53653;DHT22;39553;52.954;5.932;2022-07-29T03:06:52;14.20;99.90
53653;DHT22;39553;52.954;5.932;2022-07-29T03:09:18;14.10;99.90
53653;DHT22;39553;52.954;5.932;2022-07-29T03:11:45;14.20;99.90
53653;DHT22;39553;52.954;5.932;2022-07-29T03:14:12;14.20;99.90
53653;DHT22;39553;52.954;5.932;2022-07-29T03:16:38;14.20;99.90
53653;DHT22;39553;52.954;5.932;2022-07-29T03:19:04;14.20;99.90
53653;DHT22;39553;52.954;5.932;2022-07-29T03:21:31;14.10;99.90
53653;DHT22;39553;52.954;5.932;2022-07-29T03:23:56;14.20;99.90
53653;DHT22;39553;52.954;5.932;2022-07-29T03:26:22;14.20;99.90
53653;DHT22;39553;52.954;5.932;2022-07-29T03:28:48;14.20;99.90
53653;DHT22;39553;52.954;5.932;2022-07-29T03:31:14;14.10;99.90
53653;DHT22;39553;52.954;5.932;2022-07-29T03:33:40;14.10;99.90
53653;DHT22;39553;52.954;5.932;2022-07-29T03:36:06;14.10;99.90
53653;DHT22;39553;52.954;5.932;2022-07-29T03:38:34;14.10;99.90
53653;DHT22;39553;52.954;5.932;2022-07-29T03:41:06;14.10;99.90
53653;DHT22;39553;52.954;5.932;2022-07-29T03:43:36;14.10;99.90
53653;DHT22;39553;52.954;5.932;2022-07-29T03:46:06;14.10;99.90
53653;DHT22;39553;52.954;5.932;2022-07-29T03:48:33;14.10;99.90
53653;DHT22;39553;52.954;5.932;2022-07-29T03:51:01;14.10;99.90
53653;DHT22;39553;52.954;5.932;2022-07-29T03:53:27;14.10;99.90
53653;DHT22;39553;52.954;5.932;2022-07-29T03:55:59;14.10;99.90
53653;DHT22;39553;52.954;5.932;2022-07-29T03:58:27;14.10;99.90
53653;DHT22;39553;52.954;5.932;2022-07-29T04:00:56;14.10;99.90
53653;DHT22;39553;52.954;5.932;2022-07-29T04:03:22;14.00;99.90
53653;DHT22;39553;52.954;5.932;2022-07-29T04:06:17;14.00;99.90
53653;DHT22;39553;52.954;5.932;2022-07-29T04:08:43;14.00;99.90
53653;DHT22;39553;52.954;5.932;2022-07-29T04:11:09;14.10;99.90
53653;DHT22;39553;52.954;5.932;2022-07-29T04:13:35;14.00;99.90
53653;DHT22;39553;52.954;5.932;2022-07-29T04:16:00;14.00;99.90
53653;DHT22;39553;52.954;5.932;2022-07-29T04:18:26;14.00;99.90
53653;DHT22;39553;52.954;5.932;2022-07-29T04:20:52;14.00;99.90
53653;DHT22;39553;52.954;5.932;2022-07-29T04:23:18;14.00;99.90
53653;DHT22;39553;52.954;5.932;2022-07-29T04:25:43;13.90;99.90
53653;DHT22;39553;52.954;5.932;2022-07-29T04:28:09;14.00;99.90
53653;DHT22;39553;52.954;5.932;2022-07-29T04:30:36;14.00;99.90
53653;DHT22;39553;52.954;5.932;2022-07-29T04:33:04;14.00;99.90
53653;DHT22;39553;52.954;5.932;2022-07-29T04:35:33;14.00;99.90
53653;DHT22;39553;52.954;5.932;2022-07-29T04:37:59;14.00;99.90
53653;DHT22;39553;52.954;5.932;2022-07-29T04:40:25;13.90;99.90
53653;DHT22;39553;52.954;5.932;2022-07-29T04:42:50;14.00;99.90
53653;DHT22;39553;52.954;5.932;2022-07-29T04:45:16;14.00;99.90
53653;DHT22;39553;52.954;5.932;2022-07-29T04:47:42;14.00;99.90
53653;DHT22;39553;52.954;5.932;2022-07-29T04:50:09;14.00;99.90
53653;DHT22;39553;52.954;5.932;2022-07-29T04:52:35;14.00;99.90
53653;DHT22;39553;52.954;5.932;2022-07-29T04:55:01;14.00;99.90
53653;DHT22;39553;52.954;5.932;2022-07-29T04:57:27;14.10;99.90
53653;DHT22;39553;52.954;5.932;2022-07-29T04:59:52;14.10;99.90
53653;DHT22;39553;52.954;5.932;2022-07-29T05:02:18;14.10;99.90
53653;DHT22;39553;52.954;5.932;2022-07-29T05:04:44;14.30;99.90
53653;DHT22;39553;52.954;5.932;2022-07-29T05:07:10;14.10;99.90
53653;DHT22;39553;52.954;5.932;2022-07-29T05:09:35;14.10;99.90
53653;DHT22;39553;52.954;5.932;2022-07-29T05:12:01;14.10;99.90
53653;DHT22;39553;52.954;5.932;2022-07-29T05:14:27;14.10;99.90
53653;DHT22;39553;52.954;5.932;2022-07-29T05:16:53;14.10;99.90
53653;DHT22;39553;52.954;5.932;2022-07-29T05:19:23;14.10;99.90
53653;DHT22;39553;52.954;5.932;2022-07-29T05:21:49;14.10;99.90
53653;DHT22;39553;52.954;5.932;2022-07-29T05:24:15;14.10;99.90
53653;DHT22;39553;52.954;5.932;2022-07-29T05:26:41;14.10;99.90
53653;DHT22;39553;52.954;5.932;2022-07-29T05:29:07;14.10;99.90
53653;DHT22;39553;52.954;5.932;2022-07-29T05:31:33;14.10;99.90
53653;DHT22;39553;52.954;5.932;2022-07-29T05:33:59;14.20;99.90
53653;DHT22;39553;52.954;5.932;2022-07-29T05:36:25;14.30;99.90
53653;DHT22;39553;52.954;5.932;2022-07-29T05:38:51;14.40;99.90
53653;DHT22;39553;52.954;5.932;2022-07-29T05:41:18;14.50;99.90
53653;DHT22;39553;52.954;5.932;2022-07-29T05:43:44;14.60;99.90
53653;DHT22;39553;52.954;5.932;2022-07-29T05:46:10;14.70;99.90
53653;DHT22;39553;52.954;5.932;2022-07-29T05:48:35;14.90;99.90
53653;DHT22;39553;52.954;5.932;2022-07-29T05:51:02;15.10;99.90
53653;DHT22;39553;52.954;5.932;2022-07-29T05:53:28;15.20;99.90
53653;DHT22;39553;52.954;5.932;2022-07-29T05:55:53;15.40;99.90
53653;DHT22;39553;52.954;5.932;2022-07-29T05:58:20;15.50;99.90
53653;DHT22;39553;52.954;5.932;2022-07-29T06:00:46;15.60;99.90
53653;DHT22;39553;52.954;5.932;2022-07-29T06:03:11;15.80;99.90
53653;DHT22;39553;52.954;5.932;2022-07-29T06:05:37;16.00;99.90
53653;DHT22;39553;52.954;5.932;2022-07-29T06:08:03;16.20;99.90
53653;DHT22;39553;52.954;5.932;2022-07-29T06:10:32;16.30;99.90
53653;DHT22;39553;52.954;5.932;2022-07-29T06:12:58;16.50;99.90
53653;DHT22;39553;52.954;5.932;2022-07-29T06:15:24;16.60;99.90
53653;DHT22;39553;52.954;5.932;2022-07-29T06:17:50;16.70;99.90
53653;DHT22;39553;52.954;5.932;2022-07-29T06:20:19;16.80;99.90
53653;DHT22;39553;52.954;5.932;2022-07-29T06:22:44;16.70;99.90
53653;DHT22;39553;52.954;5.932;2022-07-29T06:25:10;16.70;99.90
53653;DHT22;39553;52.954;5.932;2022-07-29T06:27:37;16.80;99.90
53653;DHT22;39553;52.954;5.932;2022-07-29T06:30:04;16.90;99.90
53653;DHT22;39553;52.954;5.932;2022-07-29T06:32:33;17.00;99.90
53653;DHT22;39553;52.954;5.932;2022-07-29T06:34:59;17.30;99.90
53653;DHT22;39553;52.954;5.932;2022-07-29T06:37:25;17.40;99.90
53653;DHT22;39553;52.954;5.932;2022-07-29T06:39:50;17.50;99.90
53653;DHT22;39553;52.954;5.932;2022-07-29T06:42:43;17.60;99.90
53653;DHT22;39553;52.954;5.932;2022-07-29T06:45:10;17.80;99.90
53653;DHT22;39553;52.954;5.932;2022-07-29T06:47:36;18.00;99.90
53653;DHT22;39553;52.954;5.932;2022-07-29T06:50:03;18.20;99.90
53653;DHT22;39553;52.954;5.932;2022-07-29T06:52:29;18.40;99.90
53653;DHT22;39553;52.954;5.932;2022-07-29T06:54:55;18.70;99.90
53653;DHT22;39553;52.954;5.932;2022-07-29T06:57:21;18.90;99.90
53653;DHT22;39553;52.954;5.932;2022-07-29T06:59:47;19.20;99.90
53653;DHT22;39553;52.954;5.932;2022-07-29T07:02:13;19.30;99.90
53653;DHT22;39553;52.954;5.932;2022-07-29T07:04:39;19.60;99.90
53653;DHT22;39553;52.954;5.932;2022-07-29T07:07:05;20.20;99.90
53653;DHT22;39553;52.954;5.932;2022-07-29T07:09:31;20.60;99.90
53653;DHT22;39553;52.954;5.932;2022-07-29T07:11:56;20.90;99.90
53653;DHT22;39553;52.954;5.932;2022-07-29T07:14:22;21.30;99.90
53653;DHT22;39553;52.954;5.932;2022-07-29T07:16:48;21.60;99.90
53653;DHT22;39553;52.954;5.932;2022-07-29T07:19:13;21.80;99.90
53653;DHT22;39553;52.954;5.932;2022-07-29T07:21:39;22.10;99.90
53653;DHT22;39553;52.954;5.932;2022-07-29T07:24:06;21.80;99.90
53653;DHT22;39553;52.954;5.932;2022-07-29T07:26:32;21.50;99.90
53653;DHT22;39553;52.954;5.932;2022-07-29T07:28:57;21.10;99.90
53653;DHT22;39553;52.954;5.932;2022-07-29T07:31:23;20.80;99.90
53653;DHT22;39553;52.954;5.932;2022-07-29T07:33:49;20.60;99.90
53653;DHT22;39553;52.954;5.932;2022-07-29T07:36:14;20.20;99.90
53653;DHT22;39553;52.954;5.932;2022-07-29T07:38:40;19.80;99.90
53653;DHT22;39553;52.954;5.932;2022-07-29T07:41:06;19.50;99.90
53653;DHT22;39553;52.954;5.932;2022-07-29T07:43:32;19.30;99.90
53653;DHT22;39553;52.954;5.932;2022-07-29T07:45:58;19.10;99.90
53653;DHT22;39553;52.954;5.932;2022-07-29T07:48:23;18.90;99.90
53653;DHT22;39553;52.954;5.932;2022-07-29T07:50:49;18.60;99.90
53653;DHT22;39553;52.954;5.932;2022-07-29T07:53:16;18.50;99.90
53653;DHT22;39553;52.954;5.932;2022-07-29T07:55:42;18.40;99.90
53653;DHT22;39553;52.954;5.932;2022-07-29T07:58:09;18.30;99.90
53653;DHT22;39553;52.954;5.932;2022-07-29T08:00:36;18.20;99.90
53653;DHT22;39553;52.954;5.932;2022-07-29T08:03:02;18.10;99.90
53653;DHT22;39553;52.954;5.932;2022-07-29T08:05:28;18.00;99.90
53653;DHT22;39553;52.954;5.932;2022-07-29T08:07:54;17.90;99.90
53653;DHT22;39553;52.954;5.932;2022-07-29T08:10:20;17.80;99.90
53653;DHT22;39553;52.954;5.932;2022-07-29T08:13:05;17.60;99.90
53653;DHT22;39553;52.954;5.932;2022-07-29T08:15:32;17.50;99.90
53653;DHT22;39553;52.954;5.932;2022-07-29T08:17:58;17.50;99.90
53653;DHT22;39553;52.954;5.932;2022-07-29T08:20:24;17.40;99.90
53653;DHT22;39553;52.954;5.932;2022-07-29T08:22:49;17.30;99.90
53653;DHT22;39553;52.954;5.932;2022-07-29T08:25:15;17.30;99.90
53653;DHT22;39553;52.954;5.932;2022-07-29T08:27:43;17.20;99.90
53653;DHT22;39553;52.954;5.932;2022-07-29T08:30:09;17.10;99.90
53653;DHT22;39553;52.954;5.932;2022-07-29T08:32:35;17.00;99.90
53653;DHT22;39553;52.954;5.932;2022-07-29T08:35:01;17.00;99.90
53653;DHT22;39553;52.954;5.932;2022-07-29T08:37:27;16.90;99.90
53653;DHT22;39553;52.954;5.932;2022-07-29T08:39:52;16.80;99.90
53653;DHT22;39553;52.954;5.932;2022-07-29T08:42:19;16.80;99.90
53653;DHT22;39553;52.954;5.932;2022-07-29T08:44:45;16.70;99.90
53653;DHT22;39553;52.954;5.932;2022-07-29T08:47:13;16.70;99.90
53653;DHT22;39553;52.954;5.932;2022-07-29T08:49:40;16.70;99.90
53653;DHT22;39553;52.954;5.932;2022-07-29T08:52:06;16.70;99.90
53653;DHT22;39553;52.954;5.932;2022-07-29T08:54:32;16.70;99.90
53653;DHT22;39553;52.954;5.932;2022-07-29T08:56:59;16.80;99.90
53653;DHT22;39553;52.954;5.932;2022-07-29T08:59:27;16.90;99.90
53653;DHT22;39553;52.954;5.932;2022-07-29T09:01:54;17.00;99.90
53653;DHT22;39553;52.954;5.932;2022-07-29T09:04:21;17.20;99.90
53653;DHT22;39553;52.954;5.932;2022-07-29T09:06:52;17.40;99.90
53653;DHT22;39553;52.954;5.932;2022-07-29T09:09:18;17.70;99.90
53653;DHT22;39553;52.954;5.932;2022-07-29T09:11:44;18.10;99.90
53653;DHT22;39553;52.954;5.932;2022-07-29T09:14:13;18.60;99.90
53653;DHT22;39553;52.954;5.932;2022-07-29T09:16:52;19.20;99.90
53653;DHT22;39553;52.954;5.932;2022-07-29T09:19:41;20.00;99.90
53653;DHT22;39553;52.954;5.932;2022-07-29T09:22:07;20.60;99.90
53653;DHT22;39553;52.954;5.932;2022-07-29T09:27:01;20.60;99.90
53653;DHT22;39553;52.954;5.932;2022-07-29T09:29:27;20.40;99.90
53653;DHT22;39553;52.954;5.932;2022-07-29T09:31:54;20.00;99.90
53653;DHT22;39553;52.954;5.932;2022-07-29T09:34:25;19.90;99.90
53653;DHT22;39553;52.954;5.932;2022-07-29T09:36:53;19.60;99.90
53653;DHT22;39553;52.954;5.932;2022-07-29T09:39:38;19.40;99.90
53653;DHT22;39553;52.954;5.932;2022-07-29T09:42:11;19.20;99.90
53653;DHT22;39553;52.954;5.932;2022-07-29T09:44:56;18.90;99.90
53653;DHT22;39553;52.954;5.932;2022-07-29T09:47:46;18.90;99.90
53653;DHT22;39553;52.954;5.932;2022-07-29T09:50:14;18.70;99.90
53653;DHT22;39553;52.954;5.932;2022-07-29T09:52:51;18.60;99.90
53653;DHT22;39553;52.954;5.932;2022-07-29T09:55:20;18.50;99.90
53653;DHT22;39553;52.954;5.932;2022-07-29T09:57:46;18.50;99.90
53653;DHT22;39553;52.954;5.932;2022-07-29T10:00:18;18.40;99.90
53653;DHT22;39553;52.954;5.932;2022-07-29T10:02:46;18.40;99.90
53653;DHT22;39553;52.954;5.932;2022-07-29T10:05:24;18.50;99.90
53653;DHT22;39553;52.954;5.932;2022-07-29T10:07:56;18.60;99.90
53653;DHT22;39553;52.954;5.932;2022-07-29T10:10:27;18.70;99.90
53653;DHT22;39553;52.954;5.932;2022-07-29T10:12:54;18.90;99.90
53653;DHT22;39553;52.954;5.932;2022-07-29T10:15:25;18.90;99.90
53653;DHT22;39553;52.954;5.932;2022-07-29T10:17:53;19.00;99.90
53653;DHT22;39553;52.954;5.932;2022-07-29T10:20:21;19.00;99.90
53653;DHT22;39553;52.954;5.932;2022-07-29T10:22:48;19.10;99.90
53653;DHT22;39553;52.954;5.932;2022-07-29T10:25:15;19.10;99.90
53653;DHT22;39553;52.954;5.932;2022-07-29T10:27:45;19.10;99.90
53653;DHT22;39553;52.954;5.932;2022-07-29T10:30:13;19.50;99.90
53653;DHT22;39553;52.954;5.932;2022-07-29T10:41:07;19.30;99.90
53653;DHT22;39553;52.954;5.932;2022-07-29T10:44:03;19.40;99.90
53653;DHT22;39553;52.954;5.932;2022-07-29T10:46:35;19.60;99.90
53653;DHT22;39553;52.954;5.932;2022-07-29T10:49:05;19.70;99.90
53653;DHT22;39553;52.954;5.932;2022-07-29T10:52:06;19.70;99.90
53653;DHT22;39553;52.954;5.932;2022-07-29T10:54:39;19.90;99.90
53653;DHT22;39553;52.954;5.932;2022-07-29T10:59:38;20.00;99.90
53653;DHT22;39553;52.954;5.932;2022-07-29T11:05:03;20.20;99.90
53653;DHT22;39553;52.954;5.932;2022-07-29T11:07:31;20.30;99.90
53653;DHT22;39553;52.954;5.932;2022-07-29T11:15:10;20.70;99.90
53653;DHT22;39553;52.954;5.932;2022-07-29T11:18:07;20.70;99.90
53653;DHT22;39553;52.954;5.932;2022-07-29T11:20:36;20.80;99.90
53653;DHT22;39553;52.954;5.932;2022-07-29T11:23:17;20.80;99.90
53653;DHT22;39553;52.954;5.932;2022-07-29T11:25:43;20.90;99.90
53653;DHT22;39553;52.954;5.932;2022-07-29T11:28:16;20.90;99.90
53653;DHT22;39553;52.954;5.932;2022-07-29T11:30:52;21.10;99.90
53653;DHT22;39553;52.954;5.932;2022-07-29T11:33:32;21.20;99.90
53653;DHT22;39553;52.954;5.932;2022-07-29T11:36:09;21.30;99.90
53653;DHT22;39553;52.954;5.932;2022-07-29T11:38:36;21.50;99.90
53653;DHT22;39553;52.954;5.932;2022-07-29T11:43:54;22.10;99.90
53653;DHT22;39553;52.954;5.932;2022-07-29T11:46:51;22.00;99.90
53653;DHT22;39553;52.954;5.932;2022-07-29T11:49:25;22.10;99.90
53653;DHT22;39553;52.954;5.932;2022-07-29T11:51:53;22.40;99.90
53653;DHT22;39553;52.954;5.932;2022-07-29T11:54:33;22.90;99.90
53653;DHT22;39553;52.954;5.932;2022-07-29T11:56:59;23.60;99.90
53653;DHT22;39553;52.954;5.932;2022-07-29T11:59:26;24.30;99.90
53653;DHT22;39553;52.954;5.932;2022-07-29T12:01:57;24.60;99.90
53653;DHT22;39553;52.954;5.932;2022-07-29T12:04:23;25.00;99.90
53653;DHT22;39553;52.954;5.932;2022-07-29T12:06:54;25.10;99.90
53653;DHT22;39553;52.954;5.932;2022-07-29T12:09:21;25.10;99.90
53653;DHT22;39553;52.954;5.932;2022-07-29T12:11:47;24.70;99.90
53653;DHT22;39553;52.954;5.932;2022-07-29T12:14:29;24.40;99.90
53653;DHT22;39553;52.954;5.932;2022-07-29T12:16:57;24.20;99.90
53653;DHT22;39553;52.954;5.932;2022-07-29T12:19:23;24.00;99.90
53653;DHT22;39553;52.954;5.932;2022-07-29T12:21:53;24.00;99.90
53653;DHT22;39553;52.954;5.932;2022-07-29T12:24:20;24.00;99.90
53653;DHT22;39553;52.954;5.932;2022-07-29T12:26:54;24.00;99.90
53653;DHT22;39553;52.954;5.932;2022-07-29T12:29:21;24.00;99.90
53653;DHT22;39553;52.954;5.932;2022-07-29T12:31:52;24.00;99.80
53653;DHT22;39553;52.954;5.932;2022-07-29T12:34:22;23.90;99.60
53653;DHT22;39553;52.954;5.932;2022-07-29T12:36:48;23.70;99.90
53653;DHT22;39553;52.954;5.932;2022-07-29T12:39:19;23.70;99.90
53653;DHT22;39553;52.954;5.932;2022-07-29T12:41:45;23.70;99.90
53653;DHT22;39553;52.954;5.932;2022-07-29T12:44:11;23.60;99.90
53653;DHT22;39553;52.954;5.932;2022-07-29T12:46:37;23.60;99.90
53653;DHT22;39553;52.954;5.932;2022-07-29T12:49:03;23.70;99.90
53653;DHT22;39553;52.954;5.932;2022-07-29T12:51:33;23.80;99.90
53653;DHT22;39553;52.954;5.932;2022-07-29T12:54:08;23.80;99.90
53653;DHT22;39553;52.954;5.932;2022-07-29T12:56:38;23.90;99.90
53653;DHT22;39553;52.954;5.932;2022-07-29T12:59:14;23.90;99.90
53653;DHT22;39553;52.954;5.932;2022-07-29T13:01:40;23.90;99.90
53653;DHT22;39553;52.954;5.932;2022-07-29T13:04:06;23.90;99.70
53653;DHT22;39553;52.954;5.932;2022-07-29T13:06:43;23.80;99.50
53653;DHT22;39553;52.954;5.932;2022-07-29T13:09:15;23.70;99.70
53653;DHT22;39553;52.954;5.932;2022-07-29T13:11:46;23.70;99.90
53653;DHT22;39553;52.954;5.932;2022-07-29T13:14:14;23.60;99.70
53653;DHT22;39553;52.954;5.932;2022-07-29T13:17:10;23.50;99.80
53653;DHT22;39553;52.954;5.932;2022-07-29T13:19:42;23.40;99.30
53653;DHT22;39553;52.954;5.932;2022-07-29T13:22:16;23.30;99.20
53653;DHT22;39553;52.954;5.932;2022-07-29T13:25:01;23.30;99.00
53653;DHT22;39553;52.954;5.932;2022-07-29T13:27:30;23.40;99.70
53653;DHT22;39553;52.954;5.932;2022-07-29T13:29:59;23.30;99.50
53653;DHT22;39553;52.954;5.932;2022-07-29T13:32:29;23.40;99.00
53653;DHT22;39553;52.954;5.932;2022-07-29T13:35:00;23.50;98.80
53653;DHT22;39553;52.954;5.932;2022-07-29T13:37:28;23.50;98.40
53653;DHT22;39553;52.954;5.932;2022-07-29T13:39:55;23.40;98.50
53653;DHT22;39553;52.954;5.932;2022-07-29T13:42:22;23.30;98.70
53653;DHT22;39553;52.954;5.932;2022-07-29T13:44:48;23.30;98.60
53653;DHT22;39553;52.954;5.932;2022-07-29T13:47:16;23.20;98.20
53653;DHT22;39553;52.954;5.932;2022-07-29T13:49:42;23.10;98.20
53653;DHT22;39553;52.954;5.932;2022-07-29T13:52:08;23.00;98.50
53653;DHT22;39553;52.954;5.932;2022-07-29T13:54:34;23.00;98.90
53653;DHT22;39553;52.954;5.932;2022-07-29T13:57:07;23.00;98.80
53653;DHT22;39553;52.954;5.932;2022-07-29T13:59:33;23.10;99.10
53653;DHT22;39553;52.954;5.932;2022-07-29T14:01:59;23.00;98.90
53653;DHT22;39553;52.954;5.932;2022-07-29T14:04:25;23.00;99.00
53653;DHT22;39553;52.954;5.932;2022-07-29T14:06:51;23.00;99.10
53653;DHT22;39553;52.954;5.932;2022-07-29T14:09:18;22.90;99.30
53653;DHT22;39553;52.954;5.932;2022-07-29T14:11:44;22.90;99.30
53653;DHT22;39553;52.954;5.932;2022-07-29T14:14:11;22.90;99.20
53653;DHT22;39553;52.954;5.932;2022-07-29T14:16:37;22.80;99.40
53653;DHT22;39553;52.954;5.932;2022-07-29T14:19:03;22.90;99.60
53653;DHT22;39553;52.954;5.932;2022-07-29T14:21:29;22.90;99.50
53653;DHT22;39553;52.954;5.932;2022-07-29T14:23:56;22.90;99.20
53653;DHT22;39553;52.954;5.932;2022-07-29T14:26:22;22.90;99.20
53653;DHT22;39553;52.954;5.932;2022-07-29T14:28:48;22.90;99.10
53653;DHT22;39553;52.954;5.932;2022-07-29T14:31:14;22.90;99.10
53653;DHT22;39553;52.954;5.932;2022-07-29T14:33:40;22.90;99.20
53653;DHT22;39553;52.954;5.932;2022-07-29T14:36:06;22.80;99.30
53653;DHT22;39553;52.954;5.932;2022-07-29T14:38:32;22.90;99.50
53653;DHT22;39553;52.954;5.932;2022-07-29T14:40:57;23.00;99.70
53653;DHT22;39553;52.954;5.932;2022-07-29T14:43:23;23.00;99.90
53653;DHT22;39553;52.954;5.932;2022-07-29T14:45:49;23.10;99.80
53653;DHT22;39553;52.954;5.932;2022-07-29T14:48:15;23.10;99.60
53653;DHT22;39553;52.954;5.932;2022-07-29T14:50:40;23.20;99.40
53653;DHT22;39553;52.954;5.932;2022-07-29T14:53:06;23.20;99.30
53653;DHT22;39553;52.954;5.932;2022-07-29T14:55:32;23.20;99.20
53653;DHT22;39553;52.954;5.932;2022-07-29T14:57:58;23.20;99.00
53653;DHT22;39553;52.954;5.932;2022-07-29T15:00:25;23.10;98.90
53653;DHT22;39553;52.954;5.932;2022-07-29T15:02:50;23.20;98.90
53653;DHT22;39553;52.954;5.932;2022-07-29T15:05:16;23.20;98.70
53653;DHT22;39553;52.954;5.932;2022-07-29T15:07:42;23.20;98.60
53653;DHT22;39553;52.954;5.932;2022-07-29T15:10:08;23.10;98.50
53653;DHT22;39553;52.954;5.932;2022-07-29T15:12:34;23.10;98.50
53653;DHT22;39553;52.954;5.932;2022-07-29T15:15:00;23.10;98.50
53653;DHT22;39553;52.954;5.932;2022-07-29T15:17:26;23.10;98.40
53653;DHT22;39553;52.954;5.932;2022-07-29T15:19:52;23.10;98.20
53653;DHT22;39553;52.954;5.932;2022-07-29T15:22:18;23.10;98.40
53653;DHT22;39553;52.954;5.932;2022-07-29T15:24:43;23.10;98.40
53653;DHT22;39553;52.954;5.932;2022-07-29T15:27:10;23.20;98.40
53653;DHT22;39553;52.954;5.932;2022-07-29T15:29:42;23.20;98.30
53653;DHT22;39553;52.954;5.932;2022-07-29T15:32:09;23.20;97.80
53653;DHT22;39553;52.954;5.932;2022-07-29T15:34:36;23.20;98.00
53653;DHT22;39553;52.954;5.932;2022-07-29T15:37:02;23.20;97.90
53653;DHT22;39553;52.954;5.932;2022-07-29T15:39:28;23.20;97.90
53653;DHT22;39553;52.954;5.932;2022-07-29T15:41:54;23.20;97.80
53653;DHT22;39553;52.954;5.932;2022-07-29T15:44:20;23.30;97.90
53653;DHT22;39553;52.954;5.932;2022-07-29T15:46:46;23.50;97.50
53653;DHT22;39553;52.954;5.932;2022-07-29T15:49:35;23.60;97.20
53653;DHT22;39553;52.954;5.932;2022-07-29T15:52:06;23.80;97.10
53653;DHT22;39553;52.954;5.932;2022-07-29T15:54:34;23.80;97.10
53653;DHT22;39553;52.954;5.932;2022-07-29T15:57:00;23.80;97.30
53653;DHT22;39553;52.954;5.932;2022-07-29T15:59:29;23.90;97.20
53653;DHT22;39553;52.954;5.932;2022-07-29T16:01:55;23.90;97.10
53653;DHT22;39553;52.954;5.932;2022-07-29T16:04:21;23.90;97.10
53653;DHT22;39553;52.954;5.932;2022-07-29T16:06:48;23.90;97.30
53653;DHT22;39553;52.954;5.932;2022-07-29T16:09:15;23.90;96.90
53653;DHT22;39553;52.954;5.932;2022-07-29T16:11:41;23.90;96.80
53653;DHT22;39553;52.954;5.932;2022-07-29T16:14:07;23.90;96.80
53653;DHT22;39553;52.954;5.932;2022-07-29T16:16:34;24.00;97.00